createdAt,value
2023-03-26T00:00:49.609Z,21.00
2023-03-26T00:01:40.488Z,19.90
2023-03-26T00:02:31.381Z,19.40
2023-03-26T00:03:22.140Z,21.70
2023-03-26T00:04:12.938Z,21.30
2023-03-26T00:05:03.720Z,21.00
2023-03-26T00:05:54.701Z,21.40
2023-03-26T00:06:45.538Z,19.90
2023-03-26T00:07:36.318Z,20.30
2023-03-26T00:08:27.105Z,25.20
2023-03-26T00:09:17.928Z,20.30
2023-03-26T00:10:08.700Z,20.50
2023-03-26T00:11:01.056Z,20.20
2023-03-26T00:11:50.602Z,23.00
2023-03-26T00:12:41.402Z,20.30
2023-03-26T00:13:32.192Z,23.60
2023-03-26T00:14:22.977Z,23.30
2023-03-26T00:15:13.764Z,24.70
2023-03-26T00:16:04.616Z,20.70
2023-03-26T00:16:55.431Z,25.50
2023-03-26T00:17:46.246Z,20.80
2023-03-26T00:18:36.994Z,21.50
2023-03-26T00:19:27.823Z,19.40
2023-03-26T00:20:18.566Z,24.50
2023-03-26T00:21:09.373Z,23.70
2023-03-26T00:22:00.153Z,21.60
2023-03-26T00:22:50.964Z,23.00
2023-03-26T00:23:41.739Z,22.90
2023-03-26T00:24:32.558Z,22.70
2023-03-26T00:25:23.325Z,23.00
2023-03-26T00:26:14.117Z,21.20
2023-03-26T00:27:04.905Z,24.00
2023-03-26T00:27:55.699Z,22.20
2023-03-26T00:28:46.481Z,24.20
2023-03-26T00:29:37.298Z,24.70
2023-03-26T00:30:28.107Z,22.70
2023-03-26T00:31:18.888Z,26.50
2023-03-26T00:32:09.652Z,23.70
2023-03-26T00:33:00.484Z,20.20
2023-03-26T00:33:51.233Z,18.60
2023-03-26T00:34:42.051Z,17.60
2023-03-26T00:35:32.869Z,19.80
2023-03-26T00:36:23.687Z,20.40
2023-03-26T00:37:14.468Z,22.30
2023-03-26T00:38:05.262Z,21.60
2023-03-26T00:38:56.073Z,21.50
2023-03-26T00:39:46.869Z,18.90
2023-03-26T00:40:37.639Z,18.30
2023-03-26T00:41:28.426Z,17.50
2023-03-26T00:42:19.213Z,18.70
2023-03-26T00:43:10.015Z,18.60
2023-03-26T00:44:00.799Z,17.00
2023-03-26T00:44:51.593Z,16.50
2023-03-26T00:45:42.477Z,13.60
2023-03-26T00:46:33.262Z,11.90
2023-03-26T00:47:24.058Z,17.90
2023-03-26T00:48:14.810Z,17.10
2023-03-26T00:49:05.652Z,14.50
2023-03-26T00:49:56.422Z,17.50
2023-03-26T00:50:47.221Z,17.00
2023-03-26T00:51:37.993Z,15.50
2023-03-26T00:52:28.808Z,16.20
2023-03-26T00:53:19.597Z,15.50
2023-03-26T00:54:10.383Z,17.60
2023-03-26T00:55:01.206Z,17.40
2023-03-26T00:55:52.078Z,17.40
2023-03-26T00:56:42.962Z,16.00
2023-03-26T00:57:35.772Z,16.80
2023-03-26T00:58:25.053Z,16.90
2023-03-26T00:59:15.849Z,17.00
2023-03-26T01:00:06.637Z,18.40
2023-03-26T01:00:57.441Z,15.40
2023-03-26T01:01:48.267Z,19.00
2023-03-26T01:02:39.063Z,16.60
2023-03-26T01:03:29.877Z,18.30
2023-03-26T01:04:20.947Z,17.30
2023-03-26T01:05:11.866Z,21.20
2023-03-26T01:06:02.636Z,17.70
2023-03-26T01:06:53.389Z,15.20
2023-03-26T01:07:44.174Z,16.50
2023-03-26T01:08:34.972Z,12.40
2023-03-26T01:09:25.782Z,14.10
2023-03-26T01:10:16.599Z,15.40
2023-03-26T01:11:07.411Z,16.80
2023-03-26T01:11:58.159Z,16.10
2023-03-26T01:12:48.959Z,15.30
2023-03-26T01:13:39.750Z,15.50
2023-03-26T01:14:30.561Z,22.10
2023-03-26T01:15:21.340Z,18.20
2023-03-26T01:16:12.140Z,18.70
2023-03-26T01:17:02.955Z,17.60
2023-03-26T01:17:53.721Z,19.90
2023-03-26T01:18:44.495Z,17.60
2023-03-26T01:19:35.297Z,22.40
2023-03-26T01:20:26.092Z,22.70
2023-03-26T01:21:16.870Z,19.60
2023-03-26T01:22:07.663Z,23.20
2023-03-26T01:22:58.445Z,22.80
2023-03-26T01:23:49.244Z,16.20
2023-03-26T01:24:40.049Z,17.40
2023-03-26T01:25:30.847Z,20.20
2023-03-26T01:26:21.611Z,21.50
2023-03-26T01:27:12.403Z,18.90
2023-03-26T01:28:03.195Z,21.40
2023-03-26T01:28:53.986Z,21.90
2023-03-26T01:29:44.784Z,20.40
2023-03-26T01:30:35.582Z,16.70
2023-03-26T01:31:26.365Z,18.00
2023-03-26T01:32:17.179Z,16.80
2023-03-26T01:33:08.199Z,21.90
2023-03-26T01:33:58.960Z,20.00
2023-03-26T01:34:49.768Z,16.20
2023-03-26T01:35:40.586Z,19.40
2023-03-26T01:36:31.339Z,17.60
2023-03-26T01:37:22.125Z,15.30
2023-03-26T01:38:12.917Z,20.50
2023-03-26T01:39:03.718Z,18.60
2023-03-26T01:39:54.528Z,21.20
2023-03-26T01:40:45.376Z,19.20
2023-03-26T01:41:36.082Z,17.60
2023-03-26T01:42:26.869Z,16.70
2023-03-26T01:43:17.662Z,17.00
2023-03-26T01:44:08.450Z,19.20
2023-03-26T01:44:59.253Z,20.20
2023-03-26T01:45:50.042Z,18.40
2023-03-26T01:46:40.846Z,16.80
2023-03-26T01:47:31.653Z,20.10
2023-03-26T01:48:22.402Z,17.70
2023-03-26T01:49:13.532Z,16.70
2023-03-26T01:50:04.480Z,20.20
2023-03-26T01:50:55.266Z,15.20
2023-03-26T01:51:46.052Z,18.90
2023-03-26T01:52:36.828Z,21.00
2023-03-26T01:53:27.633Z,14.00
2023-03-26T01:54:18.403Z,18.20
2023-03-26T01:55:09.198Z,19.20
2023-03-26T01:55:59.993Z,15.10
2023-03-26T01:56:50.833Z,16.30
2023-03-26T01:57:41.597Z,14.50
2023-03-26T01:58:32.377Z,14.90
2023-03-26T01:59:23.178Z,15.30
2023-03-26T02:00:13.960Z,15.70
2023-03-26T02:01:04.772Z,16.10
2023-03-26T02:01:55.583Z,15.70
2023-03-26T02:02:46.525Z,14.00
2023-03-26T02:03:37.402Z,12.60
2023-03-26T02:04:28.160Z,16.10
2023-03-26T02:05:18.970Z,14.30
2023-03-26T02:06:09.760Z,16.30
2023-03-26T02:07:00.529Z,13.70
2023-03-26T02:07:51.323Z,13.90
2023-03-26T02:08:42.096Z,12.40
2023-03-26T02:09:32.890Z,13.50
2023-03-26T02:10:23.680Z,10.80
2023-03-26T02:11:16.007Z,10.10
2023-03-26T02:12:05.239Z,11.70
2023-03-26T02:12:56.103Z,12.00
2023-03-26T02:13:46.912Z,11.00
2023-03-26T02:14:37.682Z,11.50
2023-03-26T02:15:28.472Z,10.90
2023-03-26T02:16:19.403Z,12.20
2023-03-26T02:17:10.124Z,12.00
2023-03-26T02:18:00.934Z,9.20
2023-03-26T02:18:51.698Z,8.40
2023-03-26T02:19:42.509Z,10.60
2023-03-26T02:20:33.296Z,8.80
2023-03-26T02:21:24.077Z,8.40
2023-03-26T02:22:14.860Z,9.10
2023-03-26T02:23:05.649Z,11.80
2023-03-26T02:23:56.440Z,9.00
2023-03-26T02:24:47.227Z,11.80
2023-03-26T02:25:38.028Z,7.60
2023-03-26T02:26:28.834Z,9.60
2023-03-26T02:27:19.596Z,11.10
2023-03-26T02:28:10.389Z,9.60
2023-03-26T02:29:01.209Z,10.40
2023-03-26T02:29:51.958Z,9.40
2023-03-26T02:30:42.735Z,10.10
2023-03-26T02:31:33.532Z,8.40
2023-03-26T02:32:24.340Z,11.40
2023-03-26T02:33:15.114Z,9.80
2023-03-26T02:34:05.899Z,13.20
2023-03-26T02:34:56.694Z,13.10
2023-03-26T02:35:47.629Z,13.50
2023-03-26T02:36:38.612Z,10.60
2023-03-26T02:37:29.445Z,12.20
2023-03-26T02:38:20.237Z,13.20
2023-03-26T02:39:11.022Z,11.70
2023-03-26T02:40:01.841Z,10.60
2023-03-26T02:40:52.635Z,8.70
2023-03-26T02:41:43.431Z,12.70
2023-03-26T02:42:34.185Z,11.50
2023-03-26T02:43:24.982Z,14.50
2023-03-26T02:44:15.764Z,11.10
2023-03-26T02:45:06.572Z,11.30
2023-03-26T02:45:57.638Z,11.20
2023-03-26T02:46:48.064Z,11.80
2023-03-26T02:47:38.868Z,17.90
2023-03-26T02:48:29.627Z,12.40
2023-03-26T02:49:20.410Z,11.00
2023-03-26T02:50:11.204Z,13.30
2023-03-26T02:51:01.988Z,13.20
2023-03-26T02:51:52.782Z,12.30
2023-03-26T02:52:43.578Z,13.60
2023-03-26T02:53:34.372Z,13.90
2023-03-26T02:54:25.156Z,12.90
2023-03-26T02:55:15.953Z,13.10
2023-03-26T02:56:06.750Z,15.90
2023-03-26T02:56:57.618Z,14.30
2023-03-26T02:57:48.372Z,12.20
2023-03-26T02:58:39.176Z,12.30
2023-03-26T02:59:29.965Z,10.60
2023-03-26T03:00:20.769Z,12.40
2023-03-26T03:01:11.597Z,14.20
2023-03-26T03:02:02.403Z,11.10
2023-03-26T03:02:53.334Z,12.20
2023-03-26T03:03:44.117Z,14.60
2023-03-26T03:04:34.885Z,10.60
2023-03-26T03:05:25.686Z,15.10
2023-03-26T03:06:16.477Z,10.10
2023-03-26T03:07:07.266Z,16.90
2023-03-26T03:07:58.069Z,14.80
2023-03-26T03:08:48.849Z,12.20
2023-03-26T03:09:39.634Z,13.70
2023-03-26T03:10:30.425Z,11.20
2023-03-26T03:11:21.211Z,12.30
2023-03-26T03:12:12.022Z,8.40
2023-03-26T03:13:02.789Z,11.90
2023-03-26T03:13:53.598Z,8.80
2023-03-26T03:14:44.375Z,10.40
2023-03-26T03:15:35.224Z,12.70
2023-03-26T03:16:26.004Z,12.40
2023-03-26T03:17:16.751Z,10.60
2023-03-26T03:18:07.536Z,12.80
2023-03-26T03:18:58.499Z,14.40
2023-03-26T03:19:49.235Z,13.80
2023-03-26T03:20:40.026Z,9.50
2023-03-26T03:21:30.854Z,10.50
2023-03-26T03:22:21.601Z,10.60
2023-03-26T03:23:12.386Z,12.20
2023-03-26T03:24:03.185Z,11.90
2023-03-26T03:24:53.978Z,11.60
2023-03-26T03:25:44.773Z,9.20
2023-03-26T03:26:35.560Z,9.00
2023-03-26T03:27:26.367Z,12.70
2023-03-26T03:28:17.130Z,12.20
2023-03-26T03:29:07.963Z,8.40
2023-03-26T03:29:58.717Z,7.10
2023-03-26T03:30:49.523Z,8.10
2023-03-26T03:31:40.297Z,10.10
2023-03-26T03:32:31.137Z,8.70
2023-03-26T03:33:21.896Z,8.60
2023-03-26T03:34:12.681Z,10.60
2023-03-26T03:35:03.467Z,8.70
2023-03-26T03:35:54.477Z,10.10
2023-03-26T03:36:45.421Z,8.60
2023-03-26T03:37:36.215Z,9.40
2023-03-26T03:38:26.985Z,8.90
2023-03-26T03:39:17.776Z,5.80
2023-03-26T03:40:08.588Z,8.20
2023-03-26T03:40:59.389Z,7.80
2023-03-26T03:41:50.182Z,8.60
2023-03-26T03:42:41.013Z,7.10
2023-03-26T03:43:31.756Z,10.10
2023-03-26T03:44:22.560Z,10.60
2023-03-26T03:45:13.342Z,7.50
2023-03-26T03:46:04.219Z,7.80
2023-03-26T03:46:54.963Z,9.20
2023-03-26T03:47:45.754Z,9.00
2023-03-26T03:48:36.535Z,10.20
2023-03-26T03:49:27.321Z,9.10
2023-03-26T03:50:18.122Z,8.00
2023-03-26T03:51:08.990Z,8.40
2023-03-26T03:51:59.785Z,9.20
2023-03-26T03:52:50.563Z,8.50
2023-03-26T03:53:41.346Z,7.20
2023-03-26T03:54:32.148Z,9.60
2023-03-26T03:55:22.938Z,6.80
2023-03-26T03:56:13.737Z,7.60
2023-03-26T03:57:04.530Z,7.60
2023-03-26T03:57:55.325Z,9.60
2023-03-26T03:58:46.112Z,9.10
2023-03-26T03:59:36.892Z,9.10
2023-03-26T04:00:27.686Z,9.80
2023-03-26T04:01:18.468Z,9.10
2023-03-26T04:02:09.347Z,10.00
2023-03-26T04:03:00.204Z,9.60
2023-03-26T04:03:51.125Z,12.10
2023-03-26T04:04:42.015Z,9.10
2023-03-26T04:05:32.820Z,8.70
2023-03-26T04:06:23.617Z,8.10
2023-03-26T04:07:14.402Z,9.40
2023-03-26T04:08:05.180Z,11.50
2023-03-26T04:08:56.005Z,10.50
2023-03-26T04:09:46.755Z,8.80
2023-03-26T04:10:37.546Z,10.90
2023-03-26T04:11:28.339Z,10.20
2023-03-26T04:12:19.119Z,11.10
2023-03-26T04:13:09.936Z,12.40
2023-03-26T04:14:00.710Z,10.60
2023-03-26T04:14:51.542Z,9.30
2023-03-26T04:15:42.414Z,9.50
2023-03-26T04:16:33.228Z,10.30
2023-03-26T04:17:24.028Z,11.90
2023-03-26T04:18:14.847Z,9.30
2023-03-26T04:19:05.619Z,12.90
2023-03-26T04:19:56.424Z,11.10
2023-03-26T04:20:47.251Z,15.00
2023-03-26T04:21:38.012Z,10.00
2023-03-26T04:22:28.801Z,10.00
2023-03-26T04:23:19.593Z,10.40
2023-03-26T04:24:10.364Z,12.00
2023-03-26T04:25:01.153Z,11.10
2023-03-26T04:25:51.978Z,11.60
2023-03-26T04:26:43.226Z,12.60
2023-03-26T04:27:34.412Z,10.70
2023-03-26T04:28:25.454Z,10.50
2023-03-26T04:29:16.103Z,8.50
2023-03-26T04:30:07.273Z,13.00
2023-03-26T04:30:58.072Z,11.50
2023-03-26T04:31:48.858Z,14.20
2023-03-26T04:32:39.634Z,14.60
2023-03-26T04:33:30.369Z,11.70
2023-03-26T04:34:21.115Z,10.60
2023-03-26T04:35:11.888Z,13.20
2023-03-26T04:36:02.929Z,9.70
2023-03-26T04:36:53.326Z,13.10
2023-03-26T04:37:44.110Z,9.20
2023-03-26T04:38:34.867Z,10.30
2023-03-26T04:39:25.634Z,11.40
2023-03-26T04:40:16.435Z,12.30
2023-03-26T04:41:07.202Z,11.80
2023-03-26T04:41:57.978Z,11.60
2023-03-26T04:42:48.754Z,13.00
2023-03-26T04:43:39.528Z,12.70
2023-03-26T04:44:30.334Z,12.70
2023-03-26T04:45:21.066Z,11.60
2023-03-26T04:46:11.957Z,11.00
2023-03-26T04:47:02.973Z,15.10
2023-03-26T04:47:53.930Z,12.30
2023-03-26T04:48:44.796Z,16.00
2023-03-26T04:49:35.656Z,12.80
2023-03-26T04:50:26.586Z,12.20
2023-03-26T04:51:17.871Z,11.90
2023-03-26T04:52:08.661Z,14.70
2023-03-26T04:52:59.472Z,14.30
2023-03-26T04:53:50.127Z,10.10
2023-03-26T04:54:41.165Z,14.40
2023-03-26T04:55:32.246Z,13.90
2023-03-26T04:56:23.098Z,16.40
2023-03-26T04:57:14.017Z,16.90
2023-03-26T04:58:04.650Z,12.70
2023-03-26T04:58:55.551Z,15.40
2023-03-26T04:59:46.410Z,17.60
2023-03-26T05:00:37.276Z,11.00
2023-03-26T05:01:28.185Z,13.30
2023-03-26T05:02:19.096Z,11.60
2023-03-26T05:03:10.002Z,12.50
2023-03-26T05:04:00.897Z,12.50
2023-03-26T05:04:51.739Z,14.50
2023-03-26T05:05:42.632Z,11.00
2023-03-26T05:06:33.517Z,15.10
2023-03-26T05:07:24.403Z,12.60
2023-03-26T05:08:15.281Z,13.20
2023-03-26T05:09:06.179Z,14.20
2023-03-26T05:09:57.060Z,15.40
2023-03-26T05:10:47.956Z,10.00
2023-03-26T05:11:38.823Z,12.90
2023-03-26T05:12:29.715Z,12.20
2023-03-26T05:13:20.618Z,13.90
2023-03-26T05:14:11.522Z,10.60
2023-03-26T05:15:02.387Z,13.70
2023-03-26T05:15:53.273Z,12.40
2023-03-26T05:16:44.216Z,13.60
2023-03-26T05:17:35.191Z,17.20
2023-03-26T05:18:26.031Z,15.40
2023-03-26T05:19:16.932Z,12.20
2023-03-26T05:20:07.808Z,14.10
2023-03-26T05:20:58.739Z,16.00
2023-03-26T05:21:49.611Z,12.00
2023-03-26T05:22:40.507Z,9.40
2023-03-26T05:23:31.411Z,12.60
2023-03-26T05:24:22.281Z,12.20
2023-03-26T05:25:13.160Z,10.60
2023-03-26T05:26:04.055Z,11.20
2023-03-26T05:26:54.973Z,12.50
2023-03-26T05:27:45.863Z,11.40
2023-03-26T05:28:36.739Z,11.40
2023-03-26T05:29:27.646Z,11.90
2023-03-26T05:30:18.524Z,10.20
2023-03-26T05:31:09.406Z,10.30
2023-03-26T05:32:00.305Z,8.90
2023-03-26T05:32:51.227Z,15.50
2023-03-26T05:33:42.167Z,12.50
2023-03-26T05:34:33.068Z,11.50
2023-03-26T05:35:24.010Z,11.50
2023-03-26T05:36:14.852Z,10.20
2023-03-26T05:37:05.741Z,14.50
2023-03-26T05:37:56.672Z,11.50
2023-03-26T05:38:47.521Z,12.70
2023-03-26T05:39:38.418Z,14.60
2023-03-26T05:40:29.326Z,11.50
2023-03-26T05:41:20.236Z,11.50
2023-03-26T05:42:11.131Z,11.60
2023-03-26T05:43:02.036Z,11.80
2023-03-26T05:43:52.938Z,13.70
2023-03-26T05:44:43.874Z,12.70
2023-03-26T05:45:34.741Z,11.00
2023-03-26T05:46:25.723Z,10.70
2023-03-26T05:47:16.591Z,11.80
2023-03-26T05:48:07.527Z,15.10
2023-03-26T05:48:58.392Z,13.80
2023-03-26T05:49:49.295Z,13.00
2023-03-26T05:50:40.235Z,15.50
2023-03-26T05:51:31.149Z,13.70
2023-03-26T05:52:22.058Z,14.10
2023-03-26T05:53:12.977Z,10.90
2023-03-26T05:54:03.917Z,13.20
2023-03-26T05:54:54.815Z,13.30
2023-03-26T05:55:45.734Z,14.60
2023-03-26T05:56:36.723Z,13.10
2023-03-26T05:57:27.584Z,10.20
2023-03-26T05:58:18.510Z,13.30
2023-03-26T05:59:09.412Z,10.80
2023-03-26T06:00:00.363Z,13.10
2023-03-26T06:00:51.249Z,15.90
2023-03-26T06:01:42.197Z,13.50
2023-03-26T06:02:33.114Z,14.10
2023-03-26T06:03:24.140Z,14.40
2023-03-26T06:04:15.144Z,14.20
2023-03-26T06:05:06.039Z,12.60
2023-03-26T06:05:56.959Z,14.80
2023-03-26T06:06:47.885Z,13.00
2023-03-26T06:07:38.807Z,14.20
2023-03-26T06:08:29.723Z,12.50
2023-03-26T06:09:20.642Z,14.20
2023-03-26T06:10:11.559Z,10.50
2023-03-26T06:11:03.486Z,15.50
2023-03-26T06:11:53.181Z,14.40
2023-03-26T06:12:44.108Z,12.50
2023-03-26T06:13:35.037Z,15.70
2023-03-26T06:14:25.915Z,15.10
2023-03-26T06:15:16.948Z,18.90
2023-03-26T06:16:07.810Z,13.50
2023-03-26T06:16:58.699Z,13.40
2023-03-26T06:17:49.711Z,18.70
2023-03-26T06:18:40.672Z,14.10
2023-03-26T06:19:31.553Z,10.00
2023-03-26T06:20:22.475Z,11.00
2023-03-26T06:21:13.409Z,17.30
2023-03-26T06:22:04.312Z,15.30
2023-03-26T06:22:55.223Z,12.80
2023-03-26T06:23:46.126Z,13.90
2023-03-26T06:24:37.038Z,12.60
2023-03-26T06:25:27.970Z,12.30
2023-03-26T06:26:18.872Z,11.70
2023-03-26T06:27:09.803Z,12.00
2023-03-26T06:28:00.703Z,14.30
2023-03-26T06:28:51.621Z,13.50
2023-03-26T06:29:42.551Z,11.80
2023-03-26T06:30:33.664Z,12.00
2023-03-26T06:31:24.570Z,12.70
2023-03-26T06:32:20.087Z,16.80
2023-03-26T06:33:07.411Z,14.90
2023-03-26T06:33:57.121Z,12.50
2023-03-26T06:34:48.047Z,13.80
2023-03-26T06:35:38.993Z,15.70
2023-03-26T06:36:29.861Z,15.30
2023-03-26T06:37:20.787Z,13.80
2023-03-26T06:38:11.689Z,13.80
2023-03-26T06:39:07.775Z,11.60
2023-03-26T06:39:54.534Z,14.20
2023-03-26T06:40:44.235Z,13.50
2023-03-26T06:41:35.152Z,13.80
2023-03-26T06:43:06.754Z,11.20
2023-03-26T06:43:17.971Z,10.40
2023-03-26T06:44:07.696Z,16.80
2023-03-26T06:44:58.584Z,13.40
2023-03-26T06:45:49.536Z,13.50
2023-03-26T06:46:40.494Z,16.80
2023-03-26T06:47:31.381Z,13.60
2023-03-26T06:48:22.252Z,14.60
2023-03-26T06:49:13.177Z,17.20
2023-03-26T06:50:04.088Z,14.30
2023-03-26T06:50:55.377Z,17.60
2023-03-26T06:51:45.746Z,14.90
2023-03-26T06:52:36.669Z,13.40
2023-03-26T06:53:27.574Z,16.60
2023-03-26T06:54:18.497Z,16.30
2023-03-26T06:55:09.408Z,14.80
2023-03-26T06:56:00.337Z,16.30
2023-03-26T06:56:51.312Z,16.60
2023-03-26T06:57:42.189Z,14.60
2023-03-26T06:58:33.099Z,15.80
2023-03-26T06:59:24.021Z,18.30
2023-03-26T07:00:14.933Z,17.70
2023-03-26T07:01:05.927Z,15.00
2023-03-26T07:01:56.778Z,18.60
2023-03-26T07:02:47.823Z,20.00
2023-03-26T07:03:38.754Z,18.80
2023-03-26T07:04:29.703Z,17.00
2023-03-26T07:05:20.629Z,17.40
2023-03-26T07:06:11.555Z,15.70
2023-03-26T07:07:02.463Z,16.30
2023-03-26T07:07:53.374Z,18.20
2023-03-26T07:08:44.286Z,17.10
2023-03-26T07:09:35.208Z,14.60
2023-03-26T07:10:26.119Z,15.70
2023-03-26T07:11:17.042Z,18.90
2023-03-26T07:12:08.004Z,14.00
2023-03-26T07:12:58.929Z,17.90
2023-03-26T07:13:49.826Z,16.20
2023-03-26T07:14:40.757Z,16.50
2023-03-26T07:15:31.674Z,14.90
2023-03-26T07:16:22.717Z,12.10
2023-03-26T07:17:13.564Z,20.90
2023-03-26T07:18:04.566Z,15.90
2023-03-26T07:18:55.422Z,15.70
2023-03-26T07:19:46.341Z,20.70
2023-03-26T07:20:37.253Z,18.10
2023-03-26T07:21:28.187Z,14.40
2023-03-26T07:22:19.093Z,16.70
2023-03-26T07:23:10.031Z,16.40
2023-03-26T07:24:00.950Z,13.90
2023-03-26T07:24:51.855Z,17.90
2023-03-26T07:25:42.782Z,17.00
2023-03-26T07:26:33.699Z,19.00
2023-03-26T07:27:24.615Z,16.70
2023-03-26T07:28:15.546Z,16.30
2023-03-26T07:29:06.457Z,17.70
2023-03-26T07:29:57.368Z,14.90
2023-03-26T07:30:48.286Z,16.70
2023-03-26T07:31:39.279Z,18.10
2023-03-26T07:32:30.235Z,18.50
2023-03-26T07:33:21.220Z,15.40
2023-03-26T07:34:12.120Z,20.40
2023-03-26T07:35:02.990Z,16.00
2023-03-26T07:35:53.946Z,16.10
2023-03-26T07:36:44.817Z,17.40
2023-03-26T07:37:35.719Z,20.00
2023-03-26T07:38:26.633Z,15.50
2023-03-26T07:39:17.550Z,20.60
2023-03-26T07:40:08.467Z,16.00
2023-03-26T07:40:59.377Z,17.80
2023-03-26T07:41:50.289Z,16.70
2023-03-26T07:42:41.217Z,20.00
2023-03-26T07:43:32.120Z,18.00
2023-03-26T07:44:23.052Z,20.40
2023-03-26T07:45:13.972Z,18.90
2023-03-26T07:46:04.956Z,18.50
2023-03-26T07:46:55.875Z,21.80
2023-03-26T07:47:46.807Z,16.30
2023-03-26T07:48:37.687Z,20.00
2023-03-26T07:49:28.603Z,17.90
2023-03-26T07:50:19.553Z,19.80
2023-03-26T07:51:10.438Z,19.20
2023-03-26T07:52:01.381Z,21.10
2023-03-26T07:52:52.282Z,18.40
2023-03-26T07:53:43.208Z,17.00
2023-03-26T07:54:34.139Z,18.00
2023-03-26T07:55:25.071Z,20.40
2023-03-26T07:56:16.057Z,20.00
2023-03-26T07:57:07.022Z,23.80
2023-03-26T07:57:57.898Z,18.90
2023-03-26T07:58:48.824Z,18.30
2023-03-26T07:59:39.745Z,18.80
2023-03-26T08:00:30.699Z,16.00
2023-03-26T08:01:21.600Z,24.90
2023-03-26T08:02:12.564Z,17.20
2023-03-26T08:03:03.553Z,17.90
2023-03-26T08:03:54.614Z,15.90
2023-03-26T08:04:45.642Z,23.10
2023-03-26T08:05:36.582Z,19.50
2023-03-26T08:06:27.499Z,17.60
2023-03-26T08:07:18.424Z,18.60
2023-03-26T08:08:09.361Z,15.20
2023-03-26T08:09:00.313Z,17.50
2023-03-26T08:09:51.209Z,19.90
2023-03-26T08:10:42.373Z,14.10
2023-03-26T08:11:33.237Z,18.00
2023-03-26T08:12:24.175Z,17.90
2023-03-26T08:13:15.108Z,16.00
2023-03-26T08:14:06.032Z,22.80
2023-03-26T08:14:56.975Z,17.30
2023-03-26T08:15:47.940Z,19.40
2023-03-26T08:16:38.835Z,17.10
2023-03-26T08:17:31.232Z,18.00
2023-03-26T08:18:20.435Z,17.30
2023-03-26T08:19:11.378Z,17.30
2023-03-26T08:20:02.377Z,19.80
2023-03-26T08:20:53.487Z,16.70
2023-03-26T08:21:43.930Z,17.40
2023-03-26T08:22:34.859Z,19.10
2023-03-26T08:23:25.792Z,18.10
2023-03-26T08:24:16.731Z,19.00
2023-03-26T08:25:07.667Z,21.30
2023-03-26T08:25:58.625Z,16.70
2023-03-26T08:26:49.563Z,18.30
2023-03-26T08:27:40.525Z,17.50
2023-03-26T08:28:31.450Z,15.60
2023-03-26T08:29:22.418Z,17.30
2023-03-26T08:30:13.345Z,20.20
2023-03-26T08:31:04.340Z,25.60
2023-03-26T08:31:55.218Z,15.80
2023-03-26T08:32:46.206Z,20.30
2023-03-26T08:33:38.347Z,22.70
2023-03-26T08:34:28.184Z,21.20
2023-03-26T08:35:19.154Z,14.20
2023-03-26T08:36:10.063Z,18.10
2023-03-26T08:37:00.989Z,18.70
2023-03-26T08:37:51.898Z,22.30
2023-03-26T08:38:42.945Z,38.60
2023-03-26T08:39:33.457Z,23.20
2023-03-26T08:40:24.361Z,16.80
2023-03-26T08:41:15.290Z,18.10
2023-03-26T08:42:06.211Z,15.80
2023-03-26T08:42:57.160Z,18.50
2023-03-26T08:43:48.108Z,15.90
2023-03-26T08:44:39.065Z,18.30
2023-03-26T08:45:29.982Z,20.30
2023-03-26T08:46:20.969Z,17.60
2023-03-26T08:47:11.889Z,21.10
2023-03-26T08:48:02.855Z,22.00
2023-03-26T08:48:53.745Z,19.00
2023-03-26T08:49:44.715Z,18.70
2023-03-26T08:50:35.628Z,18.60
2023-03-26T08:51:26.577Z,21.70
2023-03-26T08:52:17.502Z,19.10
2023-03-26T08:53:08.485Z,19.00
2023-03-26T08:53:59.429Z,21.40
2023-03-26T08:54:50.357Z,17.10
2023-03-26T08:55:41.282Z,19.00
2023-03-26T08:56:32.232Z,19.10
2023-03-26T08:57:23.129Z,20.30
2023-03-26T08:58:14.072Z,15.80
2023-03-26T08:59:05.019Z,17.70
2023-03-26T08:59:55.954Z,19.80
2023-03-26T09:00:46.905Z,17.90
2023-03-26T09:01:37.886Z,17.20
2023-03-26T09:02:28.848Z,21.90
2023-03-26T09:03:19.809Z,22.00
2023-03-26T09:04:10.763Z,21.20
2023-03-26T09:05:01.689Z,18.40
2023-03-26T09:05:52.899Z,19.40
2023-03-26T09:06:43.853Z,20.80
2023-03-26T09:07:34.780Z,17.60
2023-03-26T09:08:25.716Z,18.60
2023-03-26T09:09:18.900Z,17.60
2023-03-26T09:10:07.895Z,16.50
2023-03-26T09:10:58.850Z,15.30
2023-03-26T09:11:49.788Z,17.40
2023-03-26T09:12:40.735Z,19.40
2023-03-26T09:13:31.692Z,18.00
2023-03-26T09:14:22.621Z,17.50
2023-03-26T09:15:13.564Z,15.50
2023-03-26T09:16:04.603Z,19.20
2023-03-26T09:16:55.477Z,19.30
2023-03-26T09:17:46.451Z,18.60
2023-03-26T09:18:37.413Z,16.50
2023-03-26T09:19:28.330Z,16.30
2023-03-26T09:20:19.280Z,20.50
2023-03-26T09:21:10.234Z,20.20
2023-03-26T09:22:01.169Z,17.90
2023-03-26T09:22:52.109Z,17.00
2023-03-26T09:23:43.076Z,16.10
2023-03-26T09:24:34.011Z,15.10
2023-03-26T09:25:24.956Z,18.10
2023-03-26T09:26:15.902Z,17.90
2023-03-26T09:27:06.845Z,18.10
2023-03-26T09:27:57.789Z,21.00
2023-03-26T09:28:48.737Z,17.40
2023-03-26T09:29:39.675Z,17.20
2023-03-26T09:30:30.637Z,15.80
2023-03-26T09:31:21.608Z,17.40
2023-03-26T09:32:12.515Z,16.40
2023-03-26T09:33:03.495Z,19.80
2023-03-26T09:33:54.432Z,18.10
2023-03-26T09:34:45.362Z,16.70
2023-03-26T09:35:36.333Z,16.20
2023-03-26T09:36:27.281Z,18.90
2023-03-26T09:37:18.180Z,20.70
2023-03-26T09:38:09.126Z,17.80
2023-03-26T09:39:00.094Z,22.10
2023-03-26T09:39:51.008Z,15.00
2023-03-26T09:40:41.958Z,19.20
2023-03-26T09:41:32.899Z,16.90
2023-03-26T09:42:23.846Z,16.80
2023-03-26T09:43:14.782Z,24.60
2023-03-26T09:44:05.731Z,15.50
2023-03-26T09:44:56.664Z,18.90
2023-03-26T09:45:47.690Z,22.40
2023-03-26T09:46:38.644Z,15.60
2023-03-26T09:47:29.613Z,18.80
2023-03-26T09:48:20.513Z,12.30
2023-03-26T09:49:11.478Z,16.10
2023-03-26T09:50:02.419Z,14.80
2023-03-26T09:50:53.489Z,19.20
2023-03-26T09:51:44.498Z,17.40
2023-03-26T09:52:35.445Z,16.10
2023-03-26T09:53:26.390Z,18.60
2023-03-26T09:54:17.327Z,17.70
2023-03-26T09:55:08.292Z,15.00
2023-03-26T09:55:59.218Z,18.50
2023-03-26T09:56:50.173Z,19.70
2023-03-26T09:57:41.137Z,14.70
2023-03-26T09:58:32.053Z,15.80
2023-03-26T09:59:22.976Z,16.50
2023-03-26T10:00:13.933Z,18.10
2023-03-26T10:01:04.904Z,13.80
2023-03-26T10:01:55.818Z,15.30
2023-03-26T10:02:47.585Z,21.90
2023-03-26T10:03:37.478Z,33.30
2023-03-26T10:04:28.482Z,15.50
2023-03-26T10:05:19.367Z,18.80
2023-03-26T10:06:10.324Z,17.70
2023-03-26T10:07:01.266Z,19.70
2023-03-26T10:07:52.228Z,19.30
2023-03-26T10:08:43.165Z,15.60
2023-03-26T10:09:34.110Z,18.40
2023-03-26T10:10:25.036Z,18.60
2023-03-26T10:11:15.996Z,16.10
2023-03-26T10:12:06.931Z,17.60
2023-03-26T10:13:11.602Z,21.30
2023-03-26T10:13:49.812Z,17.80
2023-03-26T10:14:39.537Z,16.90
2023-03-26T10:15:30.474Z,19.70
2023-03-26T10:16:21.454Z,19.20
2023-03-26T10:17:12.362Z,16.60
2023-03-26T10:18:03.358Z,17.70
2023-03-26T10:18:55.263Z,17.40
2023-03-26T10:19:45.000Z,15.50
2023-03-26T10:20:35.912Z,14.40
2023-03-26T10:21:28.470Z,14.30
2023-03-26T10:22:17.691Z,13.70
2023-03-26T10:23:08.593Z,14.60
2023-03-26T10:23:59.521Z,13.90
2023-03-26T10:24:50.451Z,15.20
2023-03-26T10:25:41.381Z,17.60
2023-03-26T10:26:32.336Z,19.20
2023-03-26T10:27:24.755Z,19.30
2023-03-26T10:28:13.869Z,18.30
2023-03-26T10:29:04.814Z,15.40
2023-03-26T10:29:55.707Z,17.30
2023-03-26T10:30:46.695Z,14.20
2023-03-26T10:31:37.585Z,19.40
2023-03-26T10:32:28.579Z,18.60
2023-03-26T10:33:19.468Z,14.50
2023-03-26T10:34:10.396Z,17.70
2023-03-26T10:35:02.354Z,19.60
2023-03-26T10:35:52.111Z,19.10
2023-03-26T10:36:43.024Z,17.00
2023-03-26T10:37:33.996Z,15.00
2023-03-26T10:38:24.918Z,16.20
2023-03-26T10:39:36.014Z,22.30
2023-03-26T10:40:07.849Z,17.10
2023-03-26T10:40:57.582Z,14.70
2023-03-26T10:41:48.532Z,15.40
2023-03-26T10:42:39.477Z,17.90
2023-03-26T10:43:30.413Z,18.80
2023-03-26T10:44:21.332Z,16.70
2023-03-26T10:45:12.276Z,15.60
2023-03-26T10:46:03.231Z,20.30
2023-03-26T10:46:54.142Z,16.20
2023-03-26T10:47:45.138Z,17.40
2023-03-26T10:48:36.050Z,18.40
2023-03-26T10:49:26.977Z,16.80
2023-03-26T10:50:22.985Z,17.10
2023-03-26T10:51:09.883Z,18.60
2023-03-26T10:51:59.613Z,16.30
2023-03-26T10:52:50.514Z,16.70
2023-03-26T10:53:41.468Z,18.20
2023-03-26T10:54:32.402Z,16.40
2023-03-26T10:55:25.426Z,18.10
2023-03-26T10:56:14.050Z,16.90
2023-03-26T10:57:05.248Z,15.90